createdAt,value
2019-05-19T00:00:27.979Z,11.08
2019-05-19T00:01:27.954Z,11.07
2019-05-19T00:02:27.935Z,11.05
2019-05-19T00:03:27.921Z,11.02
2019-05-19T00:04:28.543Z,11.00
2019-05-19T00:05:28.247Z,11.00
2019-05-19T00:06:27.907Z,10.96
2019-05-19T00:07:27.866Z,10.94
2019-05-19T00:08:27.862Z,10.92
2019-05-19T00:09:27.847Z,10.92
2019-05-19T00:10:27.913Z,10.93
2019-05-19T00:11:27.874Z,10.92
2019-05-19T00:12:27.825Z,10.94
2019-05-19T00:13:27.812Z,10.96
2019-05-19T00:14:28.518Z,10.97
2019-05-19T00:15:27.815Z,10.99
2019-05-19T00:16:27.776Z,10.99
2019-05-19T00:17:27.771Z,11.04
2019-05-19T00:18:27.756Z,11.05
2019-05-19T00:19:27.744Z,11.05
2019-05-19T00:20:27.759Z,11.04
2019-05-19T00:21:27.902Z,11.02
2019-05-19T00:22:27.729Z,11.00
2019-05-19T00:23:27.726Z,10.97
2019-05-19T00:24:27.699Z,10.94
2019-05-19T00:25:27.689Z,10.92
2019-05-19T00:26:27.685Z,10.87
2019-05-19T00:27:27.665Z,10.81
2019-05-19T00:28:27.649Z,10.78
2019-05-19T00:29:27.646Z,10.75
2019-05-19T00:30:27.630Z,10.71
2019-05-19T00:31:27.630Z,10.68
2019-05-19T00:32:27.620Z,10.64
2019-05-19T00:33:27.603Z,10.63
2019-05-19T00:34:27.596Z,10.63
2019-05-19T00:35:27.584Z,10.61
2019-05-19T00:36:27.574Z,10.61
2019-05-19T00:37:27.560Z,10.60
2019-05-19T00:38:27.556Z,10.60
2019-05-19T00:39:27.567Z,10.60
2019-05-19T00:40:27.520Z,10.63
2019-05-19T00:41:27.535Z,10.67
2019-05-19T00:42:27.989Z,10.61
2019-05-19T00:43:28.284Z,10.63
2019-05-19T00:44:27.558Z,10.63
2019-05-19T00:45:27.544Z,10.61
2019-05-19T00:46:27.482Z,10.61
2019-05-19T00:47:27.466Z,10.61
2019-05-19T00:48:27.435Z,10.60
2019-05-19T00:49:40.627Z,10.63
2019-05-19T00:50:28.425Z,10.63
2019-05-19T00:51:27.403Z,10.59
2019-05-19T00:52:27.414Z,10.56
2019-05-19T00:53:27.384Z,10.56
2019-05-19T00:54:27.381Z,10.56
2019-05-19T00:55:27.368Z,10.57
2019-05-19T00:56:27.344Z,10.57
2019-05-19T00:57:27.333Z,10.60
2019-05-19T00:58:27.332Z,10.63
2019-05-19T00:59:27.346Z,10.67
2019-05-19T01:00:27.319Z,10.71
2019-05-19T01:01:27.308Z,10.72
2019-05-19T01:02:27.295Z,10.71
2019-05-19T01:03:27.272Z,10.74
2019-05-19T01:04:27.259Z,10.74
2019-05-19T01:05:27.274Z,10.72
2019-05-19T01:06:27.284Z,10.72
2019-05-19T01:07:27.224Z,10.72
2019-05-19T01:08:27.215Z,10.67
2019-05-19T01:09:27.199Z,10.63
2019-05-19T01:10:27.202Z,10.63
2019-05-19T01:11:27.213Z,10.63
2019-05-19T01:12:27.162Z,10.64
2019-05-19T01:13:27.184Z,10.72
2019-05-19T01:14:27.431Z,10.76
2019-05-19T01:15:27.525Z,10.79
2019-05-19T01:16:27.284Z,10.78
2019-05-19T01:17:27.132Z,10.79
2019-05-19T01:18:27.852Z,10.74
2019-05-19T01:19:27.091Z,10.72
2019-05-19T01:20:27.099Z,10.71
2019-05-19T01:21:27.084Z,10.74
2019-05-19T01:22:27.389Z,10.74
2019-05-19T01:23:27.049Z,10.69
2019-05-19T01:24:27.093Z,10.68
2019-05-19T01:25:27.054Z,10.69
2019-05-19T01:26:27.022Z,10.64
2019-05-19T01:27:27.008Z,10.63
2019-05-19T01:28:27.021Z,10.61
2019-05-19T01:29:27.193Z,10.63
2019-05-19T01:30:27.011Z,10.61
2019-05-19T01:31:26.988Z,10.63
2019-05-19T01:32:26.947Z,10.60
2019-05-19T01:33:26.982Z,10.59
2019-05-19T01:34:26.933Z,10.56
2019-05-19T01:35:26.921Z,10.51
2019-05-19T01:36:26.922Z,10.42
2019-05-19T01:37:26.950Z,10.38
2019-05-19T01:38:28.884Z,10.37
2019-05-19T01:39:26.906Z,10.37
2019-05-19T01:40:26.872Z,10.35
2019-05-19T01:41:26.866Z,10.35
2019-05-19T01:42:26.977Z,10.35
2019-05-19T01:43:26.840Z,10.38
2019-05-19T01:44:26.849Z,10.38
2019-05-19T01:45:26.860Z,10.38
2019-05-19T01:46:26.800Z,10.38
2019-05-19T01:47:26.836Z,10.38
2019-05-19T01:48:28.107Z,10.41
2019-05-19T01:49:26.772Z,10.41
2019-05-19T01:50:26.773Z,10.41
2019-05-19T01:51:26.758Z,10.48
2019-05-19T01:52:26.789Z,10.54
2019-05-19T01:53:26.726Z,10.53
2019-05-19T01:54:26.747Z,10.49
2019-05-19T01:55:26.719Z,10.51
2019-05-19T01:56:26.710Z,10.53
2019-05-19T01:57:26.680Z,10.51
2019-05-19T01:58:26.680Z,10.49
2019-05-19T01:59:26.658Z,10.53
2019-05-19T02:00:26.649Z,10.53
2019-05-19T02:01:26.652Z,10.49
2019-05-19T02:02:26.651Z,10.46
2019-05-19T02:03:26.641Z,10.42
2019-05-19T02:04:26.607Z,10.44
2019-05-19T02:05:26.598Z,10.40
2019-05-19T02:06:26.588Z,10.38
2019-05-19T02:07:26.626Z,10.37
2019-05-19T02:08:26.569Z,10.38
2019-05-19T02:09:26.569Z,10.37
2019-05-19T02:10:26.550Z,10.38
2019-05-19T02:11:26.532Z,10.35
2019-05-19T02:12:26.529Z,10.34
2019-05-19T02:13:26.509Z,10.31
2019-05-19T02:14:26.514Z,10.33
2019-05-19T02:15:26.509Z,10.34
2019-05-19T02:16:26.480Z,10.34
2019-05-19T02:17:26.466Z,10.33
2019-05-19T02:18:26.462Z,10.34
2019-05-19T02:19:26.471Z,10.33
2019-05-19T02:20:33.043Z,10.28
2019-05-19T02:21:27.429Z,10.28
2019-05-19T02:22:26.406Z,10.28
2019-05-19T02:23:26.400Z,10.30
2019-05-19T02:24:26.428Z,10.28
2019-05-19T02:25:26.396Z,10.26
2019-05-19T02:26:26.390Z,10.34
2019-05-19T02:27:26.377Z,10.33
2019-05-19T02:28:26.348Z,10.33
2019-05-19T02:29:26.357Z,10.33
2019-05-19T02:30:26.318Z,10.34
2019-05-19T02:31:26.336Z,10.37
2019-05-19T02:32:26.313Z,10.33
2019-05-19T02:33:26.291Z,10.30
2019-05-19T02:34:26.295Z,10.26
2019-05-19T02:35:26.278Z,10.25
2019-05-19T02:36:26.263Z,10.23
2019-05-19T02:37:26.279Z,10.20
2019-05-19T02:38:26.248Z,10.22
2019-05-19T02:39:26.237Z,10.22
2019-05-19T02:40:26.218Z,10.22
2019-05-19T02:41:26.205Z,10.20
2019-05-19T02:42:26.198Z,10.22
2019-05-19T02:43:26.219Z,10.23
2019-05-19T02:44:26.227Z,10.25
2019-05-19T02:45:26.190Z,10.25
2019-05-19T02:46:26.154Z,10.22
2019-05-19T02:47:26.152Z,10.19
2019-05-19T02:48:26.166Z,10.19
2019-05-19T02:49:26.138Z,10.16
2019-05-19T02:50:26.105Z,10.09
2019-05-19T02:51:26.100Z,10.05
2019-05-19T02:52:26.089Z,10.05
2019-05-19T02:53:26.076Z,10.02
2019-05-19T02:54:26.264Z,10.01
2019-05-19T02:55:26.061Z,10.02
2019-05-19T02:56:26.326Z,10.10
2019-05-19T02:57:26.128Z,10.12
2019-05-19T02:58:26.138Z,10.10
2019-05-19T02:59:26.780Z,10.05
2019-05-19T03:00:26.196Z,9.99
2019-05-19T03:01:26.009Z,9.98
2019-05-19T03:02:25.975Z,9.95
2019-05-19T03:03:26.042Z,9.86
2019-05-19T03:04:25.956Z,9.80
2019-05-19T03:05:25.967Z,9.79
2019-05-19T03:06:25.947Z,9.77
2019-05-19T03:07:25.956Z,9.76
2019-05-19T03:08:26.086Z,9.73
2019-05-19T03:09:25.905Z,9.68
2019-05-19T03:10:25.942Z,9.66
2019-05-19T03:11:25.892Z,9.68
2019-05-19T03:12:25.867Z,9.72
2019-05-19T03:13:25.856Z,9.73
2019-05-19T03:14:26.294Z,9.72
2019-05-19T03:15:26.124Z,9.76
2019-05-19T03:16:26.206Z,9.77
2019-05-19T03:17:26.152Z,9.80
2019-05-19T03:18:26.175Z,9.79
2019-05-19T03:19:26.184Z,9.80
2019-05-19T03:20:26.284Z,9.82
2019-05-19T03:21:26.783Z,9.82
2019-05-19T03:22:26.335Z,9.80
2019-05-19T03:23:25.777Z,9.80
2019-05-19T03:24:25.734Z,9.82
2019-05-19T03:25:25.813Z,9.84
2019-05-19T03:26:25.734Z,9.82
2019-05-19T03:27:25.994Z,9.86
2019-05-19T03:28:26.661Z,9.89
2019-05-19T03:29:25.822Z,9.89
2019-05-19T03:30:25.777Z,9.91
2019-05-19T03:31:25.695Z,9.94
2019-05-19T03:32:25.668Z,9.95
2019-05-19T03:33:26.030Z,9.97
2019-05-19T03:34:27.005Z,9.97
2019-05-19T03:35:25.901Z,9.92
2019-05-19T03:36:25.914Z,9.86
2019-05-19T03:37:26.971Z,9.82
2019-05-19T03:38:26.651Z,9.83
2019-05-19T03:39:25.859Z,9.83
2019-05-19T03:40:25.713Z,9.86
2019-05-19T03:41:25.615Z,9.92
2019-05-19T03:42:25.581Z,9.94
2019-05-19T03:43:26.555Z,9.94
2019-05-19T03:44:26.049Z,9.92
2019-05-19T03:45:25.763Z,9.91
2019-05-19T03:46:26.222Z,9.92
2019-05-19T03:47:25.507Z,9.91
2019-05-19T03:48:27.276Z,9.91
2019-05-19T03:49:25.672Z,9.89
2019-05-19T03:50:25.799Z,9.89
2019-05-19T03:51:30.919Z,9.92
2019-05-19T03:52:26.829Z,9.94
2019-05-19T03:53:25.821Z,9.99
2019-05-19T03:54:25.505Z,10.04
2019-05-19T03:55:25.456Z,10.15
2019-05-19T03:56:26.147Z,10.22
2019-05-19T03:57:25.962Z,10.23
2019-05-19T03:58:26.024Z,10.20
2019-05-19T03:59:25.420Z,10.15
2019-05-19T04:00:25.385Z,10.13
2019-05-19T04:01:25.464Z,10.15
2019-05-19T04:02:25.578Z,10.13
2019-05-19T04:03:25.633Z,10.13
2019-05-19T04:04:25.622Z,10.09
2019-05-19T04:05:25.455Z,10.02
2019-05-19T04:06:25.800Z,9.99
2019-05-19T04:07:26.489Z,9.92
2019-05-19T04:08:25.446Z,9.89
2019-05-19T04:09:25.449Z,9.87
2019-05-19T04:10:25.508Z,9.91
2019-05-19T04:11:25.295Z,9.92
2019-05-19T04:12:25.442Z,9.94
2019-05-19T04:13:25.424Z,9.94
2019-05-19T04:14:25.335Z,9.94
2019-05-19T04:15:25.659Z,9.94
2019-05-19T04:16:25.315Z,9.92
2019-05-19T04:17:25.300Z,9.87
2019-05-19T04:18:25.332Z,9.83
2019-05-19T04:19:25.262Z,9.84
2019-05-19T04:20:25.433Z,9.87
2019-05-19T04:21:25.282Z,9.87
2019-05-19T04:22:25.542Z,9.86
2019-05-19T04:23:25.214Z,9.84
2019-05-19T04:24:25.262Z,9.87
2019-05-19T04:25:25.236Z,9.92
2019-05-19T04:26:25.524Z,9.92
2019-05-19T04:27:25.241Z,9.97
2019-05-19T04:28:25.051Z,10.02
2019-05-19T04:29:25.069Z,10.02
2019-05-19T04:30:25.238Z,10.04
2019-05-19T04:31:25.237Z,10.01
2019-05-19T04:32:25.261Z,9.99
2019-05-19T04:33:25.420Z,10.02
2019-05-19T04:34:25.045Z,10.04
2019-05-19T04:35:25.248Z,10.05
2019-05-19T04:36:25.047Z,10.10
2019-05-19T04:37:25.405Z,10.13
2019-05-19T04:38:24.971Z,10.16
2019-05-19T04:39:25.225Z,10.19
2019-05-19T04:40:25.057Z,10.19
2019-05-19T04:41:25.024Z,10.19
2019-05-19T04:42:25.018Z,10.16
2019-05-19T04:43:25.007Z,10.17
2019-05-19T04:44:24.890Z,10.20
2019-05-19T04:45:25.311Z,10.26
2019-05-19T04:46:24.945Z,10.31
2019-05-19T04:47:25.186Z,10.37
2019-05-19T04:48:24.984Z,10.41
2019-05-19T04:49:25.356Z,10.46
2019-05-19T04:50:24.995Z,10.48
2019-05-19T04:51:25.023Z,10.54
2019-05-19T04:52:25.022Z,10.64
2019-05-19T04:53:24.937Z,10.72
2019-05-19T04:54:24.876Z,10.79
2019-05-19T04:55:24.866Z,10.89
2019-05-19T04:56:24.962Z,10.96
2019-05-19T04:57:25.146Z,11.05
2019-05-19T04:58:24.934Z,11.08
2019-05-19T04:59:24.730Z,11.10
2019-05-19T05:00:24.722Z,11.14
2019-05-19T05:01:24.870Z,11.18
2019-05-19T05:02:25.990Z,11.26
2019-05-19T05:03:24.763Z,11.32
2019-05-19T05:04:29.020Z,11.40
2019-05-19T05:05:25.035Z,11.44
2019-05-19T05:06:24.714Z,11.50
2019-05-19T05:07:24.752Z,11.55
2019-05-19T05:08:30.412Z,11.60
2019-05-19T05:09:25.840Z,11.65
2019-05-19T05:10:24.669Z,11.75
2019-05-19T05:11:24.672Z,11.87
2019-05-19T05:12:24.619Z,11.97
2019-05-19T05:13:24.784Z,12.06
2019-05-19T05:14:25.009Z,12.15
2019-05-19T05:15:24.709Z,12.21
2019-05-19T05:16:24.642Z,12.28
2019-05-19T05:17:24.548Z,12.39
2019-05-19T05:18:24.555Z,12.42
2019-05-19T05:19:24.575Z,12.45
2019-05-19T05:20:24.990Z,12.49
2019-05-19T05:21:24.723Z,12.55
2019-05-19T05:22:24.626Z,12.67
2019-05-19T05:23:24.633Z,12.80
2019-05-19T05:24:24.533Z,13.11
2019-05-19T05:25:24.848Z,13.50
2019-05-19T05:26:24.518Z,14.12
2019-05-19T05:27:24.522Z,14.91
2019-05-19T05:28:24.577Z,15.51
2019-05-19T05:29:24.629Z,15.98
2019-05-19T05:30:24.771Z,16.43
2019-05-19T05:31:24.432Z,16.72
2019-05-19T05:32:24.573Z,17.12
2019-05-19T05:33:24.671Z,17.15
2019-05-19T05:34:24.445Z,17.05
2019-05-19T05:35:24.359Z,17.26
2019-05-19T05:36:27.303Z,17.36
2019-05-19T05:37:24.560Z,17.27
2019-05-19T05:38:24.396Z,17.24
2019-05-19T05:39:24.550Z,16.97
2019-05-19T05:40:24.448Z,16.76
2019-05-19T05:41:24.385Z,16.47
2019-05-19T05:42:24.308Z,16.23
2019-05-19T05:43:24.386Z,16.13
2019-05-19T05:44:24.470Z,16.01
2019-05-19T05:45:24.263Z,15.91
2019-05-19T05:46:24.249Z,15.73
2019-05-19T05:47:24.208Z,15.67
2019-05-19T05:48:24.255Z,15.61
2019-05-19T05:49:24.169Z,15.57
2019-05-19T05:50:24.263Z,15.40
2019-05-19T05:51:24.288Z,15.33
2019-05-19T05:52:37.581Z,15.27
2019-05-19T05:53:25.277Z,15.15
2019-05-19T05:54:24.143Z,15.07
2019-05-19T05:55:24.151Z,15.02
2019-05-19T05:56:24.114Z,14.97
2019-05-19T05:57:24.364Z,14.94
2019-05-19T05:58:24.360Z,14.89
2019-05-19T05:59:24.137Z,14.91
2019-05-19T06:00:24.179Z,14.86
2019-05-19T06:01:24.076Z,14.89
2019-05-19T06:02:24.080Z,14.89
2019-05-19T06:03:24.042Z,14.89
2019-05-19T06:04:24.035Z,14.88
2019-05-19T06:05:24.008Z,14.86
2019-05-19T06:06:24.028Z,14.85
2019-05-19T06:07:23.987Z,14.86
2019-05-19T06:08:23.964Z,14.92
2019-05-19T06:09:24.022Z,14.94
2019-05-19T06:10:23.949Z,15.03
2019-05-19T06:11:23.999Z,15.09
2019-05-19T06:12:23.939Z,15.03
2019-05-19T06:13:23.977Z,15.09
2019-05-19T06:14:23.921Z,15.09
2019-05-19T06:15:23.951Z,15.14
2019-05-19T06:16:23.886Z,15.19
2019-05-19T06:17:23.995Z,15.24
2019-05-19T06:18:25.145Z,15.27
2019-05-19T06:19:24.184Z,15.22
2019-05-19T06:20:23.843Z,15.29
2019-05-19T06:21:23.836Z,15.33
2019-05-19T06:22:23.940Z,15.31
2019-05-19T06:23:23.809Z,15.28
2019-05-19T06:24:23.864Z,15.40
2019-05-19T06:25:23.889Z,15.47
2019-05-19T06:26:23.779Z,15.54
2019-05-19T06:27:23.788Z,15.59
2019-05-19T06:28:23.748Z,15.64
2019-05-19T06:29:23.755Z,15.72
2019-05-19T06:30:23.770Z,15.83
2019-05-19T06:31:45.337Z,15.84
2019-05-19T06:32:23.746Z,15.91
2019-05-19T06:33:23.703Z,16.00
2019-05-19T06:34:23.720Z,16.01
2019-05-19T06:35:23.691Z,16.12
2019-05-19T06:36:23.687Z,16.16
2019-05-19T06:37:23.699Z,16.13
2019-05-19T06:38:23.656Z,16.02
2019-05-19T06:39:23.638Z,15.94
2019-05-19T06:40:23.637Z,16.04
2019-05-19T06:41:23.630Z,16.16
2019-05-19T06:42:23.596Z,16.29
2019-05-19T06:43:23.594Z,16.38
2019-05-19T06:44:23.611Z,16.50
2019-05-19T06:45:23.680Z,16.51
2019-05-19T06:46:23.568Z,16.47
2019-05-19T06:47:23.570Z,16.49
2019-05-19T06:48:23.556Z,16.56
2019-05-19T06:49:23.560Z,16.66
2019-05-19T06:50:23.517Z,16.64
2019-05-19T06:51:23.568Z,16.61
2019-05-19T06:52:23.494Z,16.64
2019-05-19T06:53:23.484Z,16.68
2019-05-19T06:54:23.462Z,16.57
2019-05-19T06:55:23.510Z,16.60
2019-05-19T06:56:23.476Z,16.65
2019-05-19T06:57:23.442Z,16.68
2019-05-19T06:58:23.468Z,16.81
2019-05-19T06:59:23.428Z,16.84
2019-05-19T07:00:23.469Z,16.75
2019-05-19T07:01:23.385Z,16.78
2019-05-19T07:02:23.422Z,16.87
2019-05-19T07:03:23.374Z,16.91
2019-05-19T07:04:23.359Z,16.89
2019-05-19T07:05:23.410Z,16.90
2019-05-19T07:06:23.372Z,16.91
2019-05-19T07:07:23.337Z,17.04
2019-05-19T07:08:23.444Z,17.11
2019-05-19T07:09:23.393Z,17.24
2019-05-19T07:10:23.307Z,17.24
2019-05-19T07:11:23.298Z,17.20
2019-05-19T07:12:23.293Z,17.23
2019-05-19T07:13:23.281Z,17.22
2019-05-19T07:14:23.246Z,17.23
2019-05-19T07:15:23.270Z,17.33
2019-05-19T07:16:23.245Z,17.45
2019-05-19T07:17:23.235Z,17.42
2019-05-19T07:18:23.219Z,17.41
2019-05-19T07:19:23.198Z,17.44
2019-05-19T07:20:24.050Z,17.51
2019-05-19T07:21:23.192Z,17.60
2019-05-19T07:22:23.187Z,17.71
2019-05-19T07:23:28.287Z,17.78
2019-05-19T07:24:24.159Z,17.74
2019-05-19T07:25:23.139Z,17.76
2019-05-19T07:26:23.157Z,17.83
2019-05-19T07:27:23.119Z,17.87
2019-05-19T07:28:23.180Z,17.98
2019-05-19T07:29:23.096Z,18.01
2019-05-19T07:30:23.169Z,18.08
2019-05-19T07:31:23.069Z,18.16
2019-05-19T07:32:23.066Z,18.25
2019-05-19T07:33:23.731Z,18.23
2019-05-19T07:34:23.057Z,18.13
2019-05-19T07:35:23.088Z,18.23
2019-05-19T07:36:23.025Z,18.31
2019-05-19T07:37:23.046Z,18.34
2019-05-19T07:38:23.233Z,18.43
2019-05-19T07:39:22.994Z,18.38
2019-05-19T07:40:23.070Z,18.37
2019-05-19T07:41:22.969Z,18.47
2019-05-19T07:42:22.983Z,18.59
2019-05-19T07:43:22.997Z,18.58
2019-05-19T07:44:22.937Z,18.68
2019-05-19T07:45:22.949Z,18.80
2019-05-19T07:46:22.920Z,18.90
2019-05-19T07:47:23.306Z,18.90
2019-05-19T07:48:22.937Z,18.93
2019-05-19T07:49:22.890Z,19.08
2019-05-19T07:50:22.888Z,19.02
2019-05-19T07:51:22.910Z,18.96
2019-05-19T07:52:22.845Z,19.00
2019-05-19T07:53:22.840Z,19.11
2019-05-19T07:54:22.861Z,19.14
2019-05-19T07:55:22.840Z,19.18
2019-05-19T07:56:22.809Z,19.16
2019-05-19T07:57:22.790Z,19.30
2019-05-19T07:58:22.793Z,19.31
2019-05-19T07:59:22.783Z,19.54
2019-05-19T08:00:22.790Z,19.69
2019-05-19T08:01:22.770Z,19.74
2019-05-19T08:02:23.149Z,19.94
2019-05-19T08:03:22.730Z,20.09
2019-05-19T08:04:23.328Z,20.14
2019-05-19T08:05:22.706Z,20.16
2019-05-19T08:06:22.706Z,20.13
2019-05-19T08:07:22.759Z,20.04
2019-05-19T08:08:22.668Z,19.84
2019-05-19T08:09:22.679Z,19.76
2019-05-19T08:10:22.667Z,19.76
2019-05-19T08:11:22.689Z,19.69
2019-05-19T08:12:22.645Z,19.71
2019-05-19T08:13:22.651Z,19.77
2019-05-19T08:14:22.615Z,19.81
2019-05-19T08:15:22.669Z,19.99
2019-05-19T08:16:22.623Z,20.10
2019-05-19T08:17:25.759Z,20.28
2019-05-19T08:18:22.599Z,20.41
2019-05-19T08:19:22.579Z,20.40
2019-05-19T08:20:22.544Z,20.50
2019-05-19T08:21:23.655Z,20.51
2019-05-19T08:22:22.519Z,20.62
2019-05-19T08:23:22.542Z,20.80
2019-05-19T08:24:22.522Z,21.00
2019-05-19T08:25:22.521Z,21.32
2019-05-19T08:26:23.226Z,21.45
2019-05-19T08:27:22.482Z,21.66
2019-05-19T08:28:22.471Z,22.00
2019-05-19T08:29:22.468Z,22.51
2019-05-19T08:30:22.476Z,22.70
2019-05-19T08:31:22.436Z,23.24
2019-05-19T08:32:22.626Z,23.37
2019-05-19T08:33:22.437Z,23.83
2019-05-19T08:34:22.407Z,24.39
2019-05-19T08:35:22.392Z,24.77
2019-05-19T08:36:22.373Z,24.84
2019-05-19T08:37:22.383Z,24.63
2019-05-19T08:38:22.976Z,24.99
2019-05-19T08:39:22.554Z,25.10
2019-05-19T08:40:23.598Z,24.93
2019-05-19T08:41:22.662Z,24.02
2019-05-19T08:42:22.313Z,23.68
2019-05-19T08:43:22.338Z,23.34
2019-05-19T08:44:22.398Z,23.39
2019-05-19T08:45:24.300Z,23.50
2019-05-19T08:46:22.342Z,24.03
2019-05-19T08:47:22.417Z,24.53
2019-05-19T08:48:22.255Z,24.78
2019-05-19T08:49:22.446Z,24.74
2019-05-19T08:50:22.258Z,24.78
2019-05-19T08:51:22.397Z,24.66
2019-05-19T08:52:23.915Z,24.53
2019-05-19T08:53:22.239Z,24.98
2019-05-19T08:54:22.222Z,25.33
2019-05-19T08:55:23.203Z,25.78
2019-05-19T08:56:22.230Z,25.99
2019-05-19T08:57:22.343Z,26.16
2019-05-19T08:58:22.238Z,26.29
2019-05-19T08:59:22.210Z,26.10
2019-05-19T09:00:23.714Z,26.41
2019-05-19T09:01:26.176Z,25.99
2019-05-19T09:02:26.862Z,25.40
2019-05-19T09:03:22.299Z,25.04
2019-05-19T09:04:22.113Z,25.13
2019-05-19T09:05:22.121Z,24.86
2019-05-19T09:06:22.134Z,24.89
2019-05-19T09:07:22.253Z,24.96
2019-05-19T09:08:22.245Z,25.17
2019-05-19T09:09:22.058Z,25.50
2019-05-19T09:10:22.114Z,25.50
2019-05-19T09:11:22.096Z,25.38
2019-05-19T09:12:22.051Z,25.63
2019-05-19T09:13:22.106Z,26.06
2019-05-19T09:14:22.046Z,25.80
2019-05-19T09:15:22.060Z,25.99
2019-05-19T09:16:22.301Z,25.68
2019-05-19T09:17:21.960Z,25.17
2019-05-19T09:18:22.092Z,25.40
2019-05-19T09:19:22.015Z,25.47
2019-05-19T09:20:21.986Z,25.84
2019-05-19T09:21:21.997Z,26.44
2019-05-19T09:22:22.021Z,26.96
2019-05-19T09:23:22.265Z,27.11
2019-05-19T09:24:30.066Z,26.89
2019-05-19T09:25:22.887Z,26.40
2019-05-19T09:26:22.104Z,26.40
2019-05-19T09:27:22.056Z,26.51
2019-05-19T09:28:22.350Z,26.40
2019-05-19T09:29:22.259Z,26.28
2019-05-19T09:30:21.888Z,26.26
2019-05-19T09:31:21.840Z,26.70
2019-05-19T09:32:21.815Z,26.63
2019-05-19T09:33:21.962Z,26.48
2019-05-19T09:34:22.698Z,26.52
2019-05-19T09:35:21.928Z,26.38
2019-05-19T09:36:21.849Z,25.88
2019-05-19T09:37:22.013Z,25.54
2019-05-19T09:38:21.805Z,25.50
2019-05-19T09:39:21.799Z,25.17
2019-05-19T09:40:21.919Z,25.22
2019-05-19T09:41:21.756Z,25.63
2019-05-19T09:42:21.833Z,25.80
2019-05-19T09:43:21.710Z,25.51
2019-05-19T09:44:21.975Z,25.01
2019-05-19T09:45:21.718Z,24.42
2019-05-19T09:46:21.845Z,24.06
2019-05-19T09:47:22.039Z,23.84
2019-05-19T09:48:21.648Z,23.78
2019-05-19T09:49:21.741Z,23.88
2019-05-19T09:50:21.954Z,24.10
2019-05-19T09:51:21.716Z,24.39
2019-05-19T09:52:21.618Z,25.06
2019-05-19T09:53:21.772Z,25.35
2019-05-19T09:54:21.764Z,25.36
2019-05-19T09:55:21.690Z,25.35
2019-05-19T09:56:21.568Z,25.32
2019-05-19T09:57:21.664Z,25.36
2019-05-19T09:58:21.568Z,25.53
2019-05-19T09:59:21.634Z,25.60
2019-05-19T10:00:21.545Z,25.32
2019-05-19T10:01:21.712Z,25.10
2019-05-19T10:02:21.584Z,24.43
2019-05-19T10:03:21.607Z,24.35
2019-05-19T10:04:21.520Z,24.17
2019-05-19T10:05:21.463Z,23.99
2019-05-19T10:06:21.480Z,23.73
2019-05-19T10:07:21.452Z,23.47
2019-05-19T10:08:21.621Z,23.28
2019-05-19T10:09:21.494Z,23.03
2019-05-19T10:10:21.466Z,23.17
2019-05-19T10:11:22.054Z,23.23
2019-05-19T10:12:21.705Z,23.21
2019-05-19T10:13:21.446Z,23.51
2019-05-19T10:14:21.429Z,24.01
2019-05-19T10:15:21.485Z,24.39
2019-05-19T10:16:21.456Z,24.81
2019-05-19T10:17:21.379Z,25.08
2019-05-19T10:18:21.363Z,25.29
2019-05-19T10:19:21.397Z,25.13
2019-05-19T10:20:21.380Z,24.73
2019-05-19T10:21:21.325Z,25.31
2019-05-19T10:22:21.348Z,25.26
2019-05-19T10:23:21.296Z,24.93
2019-05-19T10:24:21.303Z,25.16
2019-05-19T10:25:22.937Z,25.18
2019-05-19T10:26:22.261Z,25.17
2019-05-19T10:27:21.922Z,25.23
2019-05-19T10:28:21.237Z,25.14
2019-05-19T10:29:21.241Z,25.17
2019-05-19T10:30:21.328Z,25.06
2019-05-19T10:31:21.250Z,24.47
2019-05-19T10:32:21.409Z,23.74
2019-05-19T10:33:21.216Z,23.76
2019-05-19T10:34:21.208Z,23.65
2019-05-19T10:35:21.180Z,23.50
2019-05-19T10:36:21.247Z,23.55
2019-05-19T10:37:21.199Z,23.50
2019-05-19T10:38:21.263Z,23.80
2019-05-19T10:39:21.819Z,24.28
2019-05-19T10:40:21.122Z,24.51
2019-05-19T10:41:21.179Z,24.61
2019-05-19T10:42:21.547Z,24.57
2019-05-19T10:43:21.123Z,24.20
2019-05-19T10:44:21.117Z,23.92
2019-05-19T10:45:21.099Z,23.80
2019-05-19T10:46:21.101Z,23.73
2019-05-19T10:47:21.104Z,23.71
2019-05-19T10:48:21.104Z,23.68
2019-05-19T10:49:21.189Z,23.92
2019-05-19T10:50:21.035Z,23.86
2019-05-19T10:51:21.151Z,23.81
2019-05-19T10:52:21.056Z,24.11
2019-05-19T10:53:20.976Z,24.30
2019-05-19T10:54:21.081Z,24.65
2019-05-19T10:55:34.055Z,24.88
2019-05-19T10:56:21.983Z,25.04
2019-05-19T10:57:20.985Z,25.11
2019-05-19T10:58:21.011Z,25.54
2019-05-19T10:59:22.016Z,25.80
2019-05-19T11:00:20.946Z,25.91
2019-05-19T11:01:20.977Z,26.07
2019-05-19T11:02:22.025Z,26.51
2019-05-19T11:03:20.968Z,26.78
2019-05-19T11:04:20.969Z,26.71
2019-05-19T11:05:20.955Z,26.55
2019-05-19T11:06:20.957Z,26.31
2019-05-19T11:07:20.832Z,26.36
2019-05-19T11:08:20.877Z,26.51
2019-05-19T11:09:20.887Z,26.58
2019-05-19T11:10:20.845Z,26.41
2019-05-19T11:11:21.823Z,26.68
2019-05-19T11:12:20.939Z,26.92
2019-05-19T11:13:20.970Z,26.99
2019-05-19T11:14:20.828Z,26.71
2019-05-19T11:15:20.842Z,26.38
2019-05-19T11:16:20.785Z,26.77
2019-05-19T11:17:20.750Z,26.58
2019-05-19T11:18:20.945Z,26.47
2019-05-19T11:19:20.960Z,26.34
2019-05-19T11:20:20.850Z,26.47
2019-05-19T11:21:20.825Z,26.81
2019-05-19T11:22:20.703Z,27.21
2019-05-19T11:23:20.741Z,27.55
2019-05-19T11:24:20.673Z,27.44
2019-05-19T11:25:33.092Z,27.10
2019-05-19T11:26:21.634Z,26.63
2019-05-19T11:27:20.686Z,25.96
2019-05-19T11:28:20.704Z,25.43
2019-05-19T11:29:20.738Z,25.84
2019-05-19T11:30:20.717Z,26.25
2019-05-19T11:31:20.790Z,26.63
2019-05-19T11:32:20.607Z,26.97
2019-05-19T11:33:20.767Z,27.27
2019-05-19T11:34:20.676Z,27.83
2019-05-19T11:35:20.585Z,28.14
2019-05-19T11:36:20.660Z,28.54
2019-05-19T11:37:20.665Z,28.91
2019-05-19T11:38:20.724Z,28.57
2019-05-19T11:39:20.630Z,28.78
2019-05-19T11:40:21.254Z,28.84
2019-05-19T11:41:20.562Z,28.97
2019-05-19T11:42:20.544Z,29.23
2019-05-19T11:43:20.473Z,29.22
2019-05-19T11:44:20.501Z,29.49
2019-05-19T11:45:20.602Z,30.08
2019-05-19T11:46:20.553Z,29.93
2019-05-19T11:47:20.500Z,29.34
2019-05-19T11:48:20.740Z,29.01
2019-05-19T11:49:20.436Z,28.88
2019-05-19T11:50:20.529Z,28.26
2019-05-19T11:51:20.587Z,27.75
2019-05-19T11:52:22.884Z,27.18
2019-05-19T11:53:20.435Z,26.40
2019-05-19T11:54:29.984Z,26.02
2019-05-19T11:55:20.555Z,25.88
2019-05-19T11:56:20.389Z,25.68
2019-05-19T11:57:20.461Z,25.51
2019-05-19T11:58:20.432Z,25.41
2019-05-19T11:59:20.504Z,25.14
2019-05-19T12:00:20.438Z,24.74
2019-05-19T12:01:20.314Z,24.65
2019-05-19T12:02:20.666Z,24.68
2019-05-19T12:03:20.364Z,24.69
2019-05-19T12:04:20.322Z,24.74
2019-05-19T12:05:20.267Z,24.73
2019-05-19T12:06:21.015Z,24.68
2019-05-19T12:07:20.757Z,24.48
2019-05-19T12:08:20.486Z,24.42
2019-05-19T12:09:20.305Z,24.17
2019-05-19T12:10:21.123Z,23.71
2019-05-19T12:11:20.449Z,23.47
2019-05-19T12:12:20.262Z,23.24
2019-05-19T12:13:20.320Z,23.05
2019-05-19T12:14:20.188Z,22.98
2019-05-19T12:15:20.207Z,22.93
2019-05-19T12:16:20.255Z,22.73
2019-05-19T12:17:20.218Z,22.68
2019-05-19T12:18:20.347Z,22.60
2019-05-19T12:19:20.277Z,22.62
2019-05-19T12:20:20.941Z,22.57
2019-05-19T12:21:20.126Z,22.54
2019-05-19T12:22:20.204Z,22.50
2019-05-19T12:23:20.152Z,22.45
2019-05-19T12:24:20.230Z,22.30
2019-05-19T12:25:20.113Z,22.06
2019-05-19T12:26:23.506Z,21.99
2019-05-19T12:27:20.065Z,21.91
2019-05-19T12:28:20.125Z,21.85
2019-05-19T12:29:20.181Z,21.82
2019-05-19T12:30:20.046Z,21.76
2019-05-19T12:31:20.222Z,21.67
2019-05-19T12:32:20.087Z,21.50
2019-05-19T12:33:20.156Z,21.42
2019-05-19T12:34:20.032Z,21.25
2019-05-19T12:35:20.037Z,21.14
2019-05-19T12:36:20.003Z,21.02
2019-05-19T12:37:19.984Z,20.87
2019-05-19T12:38:20.115Z,20.80
2019-05-19T12:39:20.108Z,20.65
2019-05-19T12:40:22.612Z,20.43
2019-05-19T12:41:19.890Z,20.25
2019-05-19T12:42:19.928Z,20.03
2019-05-19T12:43:19.914Z,19.94
2019-05-19T12:44:20.087Z,19.85
2019-05-19T12:45:19.957Z,19.77
2019-05-19T12:46:19.863Z,19.73
2019-05-19T12:47:20.008Z,19.67
2019-05-19T12:48:19.895Z,19.62
2019-05-19T12:49:19.884Z,19.54
2019-05-19T12:50:19.846Z,19.49
2019-05-19T12:51:19.845Z,19.47
2019-05-19T12:52:20.053Z,19.45
2019-05-19T12:53:19.810Z,19.41
2019-05-19T12:54:19.854Z,19.45
2019-05-19T12:55:19.909Z,19.49